Time;durP1;ratioP1;P1;durP2;ratioP2;P2;SDS_P1;SDS_P2;PMS_P1;PMS_P2;Temp;Humidity;BMP_temperature;BMP_pressure;BME280_temperature;BME280_humidity;BME280_pressure;Samples;Min_cycle;Max_cycle;Signal;HPM_P1;HPM_P2
2023/11/14 00:01:06;;;;;;;;;;;;;;;-144.99;100.00;52574.47;5108193;28;19924;-63
2023/11/14 00:03:32;;;;;;;;;;;;;;;-144.99;100.00;52574.47;5110681;28;19973;-66
2023/11/14 00:06:02;;;;;;;;;;;;;;;-144.99;100.00;52517.41;5101302;28;19927;-63
2023/11/14 00:08:28;;;;;;;;;;;;;;;-144.99;100.00;52554.09;5110499;28;20036;-63
2023/11/14 00:10:55;;;;;;;;;;;;;;;-144.99;100.00;52545.94;5109980;28;19974;-63
2023/11/14 00:13:21;;;;;;;;;;;;;;;-144.99;100.00;52554.09;5102184;28;20423;-63
2023/11/14 00:15:48;;;;;;;;;;;;;;;-144.99;100.00;52558.16;5110291;28;19980;-63
2023/11/14 00:18:14;;;;;;;;;;;;;;;-144.99;100.00;52509.25;5101713;28;20148;-63
2023/11/14 00:20:41;;;;;;;;;;;;;;;-144.99;100.00;52550.00;5103075;28;19924;-63
2023/11/14 00:23:09;;;;;;;;;;;;;;;-144.99;100.00;52545.94;5107150;28;20653;-64
2023/11/14 00:25:35;;;;;;;;;;;;;;;-144.99;100.00;52566.31;5101586;28;20022;-64
2023/11/14 00:28:02;;;;;;;;;;;;;;;-144.99;100.00;52517.41;5103178;28;20343;-63
2023/11/14 00:30:28;;;;;;;;;;;;;;;-144.99;100.00;52533.69;5094742;28;20391;-63
2023/11/14 00:32:55;;;;;;;;;;;;;;;-144.99;100.00;52554.09;5107391;28;19974;-64
2023/11/14 00:35:22;;;;;;;;;;;;;;;-144.99;100.00;52566.31;5105170;28;19928;-64
2023/11/14 00:37:49;;;;;;;;;;;;;;;-144.99;100.00;52529.63;5102962;28;19932;-65
2023/11/14 00:40:17;;;;;;;;;;;;;;;-144.99;100.00;52578.53;5107464;28;19946;-65
2023/11/14 00:42:43;;;;;;;;;;;;;;;-144.99;100.00;52527.59;5106697;28;20098;-65
2023/11/14 00:45:11;;;;;;;;;;;;;;;-144.99;100.00;52550.00;5098593;28;19955;-65
2023/11/14 00:47:37;;;;;;;;;;;;;;;-144.99;100.00;52582.63;5108279;28;19969;-67
2023/11/14 00:50:05;;;;;;;;;;;;;;;-144.99;100.00;52543.91;5099681;28;19924;-67
2023/11/14 00:52:31;;;;;;;;;;;;;;;-144.99;100.00;52545.94;5101297;28;19930;-68
2023/11/14 00:54:58;;;;;;;;;;;;;;;-144.99;100.00;52529.63;5102446;28;19968;-68
2023/11/14 00:57:26;;;;;;;;;;;;;;;-144.99;100.00;52562.25;5113842;28;20026;-68
2023/11/14 00:59:52;;;;;;;;;;;;;;;-144.99;100.00;52545.94;5101714;28;19955;-65
2023/11/14 01:02:19;;;;;;;;;;;;;;;-144.99;100.00;52523.50;5108797;28;19967;-65
2023/11/14 01:04:45;;;;;;;;;;;;;;;-144.99;100.00;52509.25;5104661;28;19981;-66
2023/11/14 01:07:12;;;;;;;;;;;;;;;-144.99;100.00;52529.63;5102304;28;19946;-66
2023/11/14 01:09:38;;;;;;;;;;;;;;;-144.99;100.00;52505.16;5105948;28;20036;-66
2023/11/14 01:12:05;;;;;;;;;;;;;;;-144.99;100.00;52541.84;5096336;28;20334;-66
2023/11/14 01:14:33;;;;;;;;;;;;;;;-144.99;100.00;52533.69;5120303;27;19924;-68
2023/11/14 01:17:00;;;;;;;;;;;;;;;-144.99;100.00;52562.25;5124764;27;19923;-70
2023/11/14 01:19:26;;;;;;;;;;;;;;;-144.99;100.00;52513.31;5128775;28;19980;-68
2023/11/14 01:21:53;;;;;;;;;;;;;;;-144.99;100.00;52537.78;5125354;28;19938;-68
2023/11/14 01:24:19;;;;;;;;;;;;;;;-144.99;100.00;52529.63;5135323;27;19954;-69
2023/11/14 01:26:46;;;;;;;;;;;;;;;-144.99;100.00;52552.03;5142584;27;19912;-70
2023/11/14 01:29:12;;;;;;;;;;;;;;;-144.99;100.00;52592.81;5128519;27;19924;-70
2023/11/14 01:31:40;;;;;;;;;;;;;;;-144.99;100.00;52550.00;5129142;27;19992;-64
2023/11/14 01:34:07;;;;;;;;;;;;;;;-144.99;100.00;52572.44;5128808;28;19970;-67
2023/11/14 01:36:35;;;;;;;;;;;;;;;-144.99;100.00;52558.16;5130950;28;20367;-65
2023/11/14 01:39:02;;;;;;;;;;;;;;;-144.99;100.00;52558.16;5121824;28;20717;-66
2023/11/14 01:41:29;;;;;;;;;;;;;;;-144.99;100.00;52558.16;5116267;28;19922;-68
2023/11/14 01:43:55;;;;;;;;;;;;;;;-144.99;100.00;52525.56;5113346;28;19935;-66
2023/11/14 01:46:22;;;;;;;;;;;;;;;-144.99;100.00;52529.63;5119108;28;20027;-66
2023/11/14 01:48:50;;;;;;;;;;;;;;;-144.99;100.00;52574.47;5115612;28;20292;-67
2023/11/14 01:51:18;;;;;;;;;;;;;;;-144.99;100.00;52543.91;5115117;28;19924;-65
2023/11/14 01:53:44;;;;;;;;;;;;;;;-144.99;100.00;52556.13;5114073;28;19924;-66
2023/11/14 01:56:12;;;;;;;;;;;;;;;-144.99;100.00;52578.53;5102714;28;19956;-66
2023/11/14 01:58:38;;;;;;;;;;;;;;;-144.99;100.00;52611.16;5111370;28;19924;-67
2023/11/14 02:01:05;;;;;;;;;;;;;;;-144.99;100.00;52603.00;5107028;28;20437;-66
2023/11/14 02:03:32;;;;;;;;;;;;;;;-144.99;100.00;52574.47;5116713;28;19935;-67
2023/11/14 02:06:01;;;;;;;;;;;;;;;-144.99;100.00;52554.09;5105528;28;20382;-67
2023/11/14 02:08:30;;;;;;;;;;;;;;;-144.99;100.00;52556.13;5113050;28;20349;-66
2023/11/14 02:10:56;;;;;;;;;;;;;;;-144.99;100.00;52586.69;5113133;28;19929;-66
2023/11/14 02:13:23;;;;;;;;;;;;;;;-144.99;100.00;52603.00;5113021;28;20223;-67
2023/11/14 02:15:50;;;;;;;;;;;;;;;-144.99;100.00;52554.09;5112649;28;19980;-66
2023/11/14 02:18:17;;;;;;;;;;;;;;;-144.99;100.00;52552.03;5106405;28;20493;-65
2023/11/14 02:20:43;;;;;;;;;;;;;;;-144.99;100.00;52562.25;5110074;28;19985;-64
2023/11/14 02:23:12;;;;;;;;;;;;;;;-144.99;100.00;52554.09;5109366;28;20005;-65
2023/11/14 02:25:41;;;;;;;;;;;;;;;-144.99;100.00;52578.53;5095749;28;19979;-66
2023/11/14 02:28:07;;;;;;;;;;;;;;;-144.99;100.00;52543.91;5110762;28;19927;-65
2023/11/14 02:30:34;;;;;;;;;;;;;;;-144.99;100.00;52594.84;5100569;28;20114;-65
2023/11/14 02:33:00;;;;;;;;;;;;;;;-144.99;100.00;52590.78;5094347;28;19928;-65
2023/11/14 02:35:27;;;;;;;;;;;;;;;-144.99;100.00;52594.84;5099830;28;20028;-65
2023/11/14 02:37:53;;;;;;;;;;;;;;;-144.99;100.00;52566.31;5104767;28;20393;-65
2023/11/14 02:40:20;;;;;;;;;;;;;;;-144.99;100.00;52529.63;5099355;28;20382;-65
2023/11/14 02:42:48;;;;;;;;;;;;;;;-144.99;100.00;52562.25;5112039;28;19932;-64
2023/11/14 02:45:14;;;;;;;;;;;;;;;-144.99;100.00;52550.00;5102475;28;20010;-65
2023/11/14 02:47:41;;;;;;;;;;;;;;;-144.99;100.00;52562.25;5101642;28;20344;-65
2023/11/14 02:50:14;;;;;;;;;;;;;;;-144.99;100.00;52541.84;5093962;28;19985;-65
2023/11/14 02:52:40;;;;;;;;;;;;;;;-144.99;100.00;52574.47;5114032;27;19927;-65
2023/11/14 02:55:07;;;;;;;;;;;;;;;-144.99;100.00;52558.16;5111942;28;19924;-65
2023/11/14 02:57:33;;;;;;;;;;;;;;;-144.99;100.00;52537.78;5112399;28;20053;-65
2023/11/14 03:00:02;;;;;;;;;;;;;;;-144.99;100.00;52543.91;5099238;28;20015;-65
2023/11/14 03:02:30;;;;;;;;;;;;;;;-144.99;100.00;52574.47;5102658;28;19928;-66
2023/11/14 03:04:57;;;;;;;;;;;;;;;-144.99;100.00;52586.69;5110789;28;19995;-65
2023/11/14 03:07:23;;;;;;;;;;;;;;;-144.99;100.00;52566.31;5100743;28;19924;-65
2023/11/14 03:09:50;;;;;;;;;;;;;;;-144.99;100.00;52533.69;5108387;28;20577;-65
2023/11/14 03:12:17;;;;;;;;;;;;;;;-144.99;100.00;52501.09;5103622;28;20371;-65
2023/11/14 03:14:43;;;;;;;;;;;;;;;-144.99;100.00;52570.38;5094501;28;19970;-65
2023/11/14 03:17:11;;;;;;;;;;;;;;;-144.99;100.00;52552.03;5093286;27;19932;-65
2023/11/14 03:19:41;;;;;;;;;;;;;;;-144.99;100.00;52539.81;5111289;28;19964;-65
2023/11/14 03:22:08;;;;;;;;;;;;;;;-144.99;100.00;52550.00;5098255;28;20270;-65
2023/11/14 03:24:34;;;;;;;;;;;;;;;-144.99;100.00;52550.00;5106884;28;19924;-63
2023/11/14 03:27:01;;;;;;;;;;;;;;;-144.99;100.00;52533.69;5110065;28;20301;-63
2023/11/14 03:29:27;;;;;;;;;;;;;;;-144.99;100.00;52537.78;5102126;28;19963;-72
2023/11/14 03:31:53;;;;;;;;;;;;;;;-144.99;100.00;52550.00;5102931;28;20031;-71
2023/11/14 03:34:21;;;;;;;;;;;;;;;-144.99;100.00;52566.31;5105814;28;19928;-70
2023/11/14 03:36:52;;;;;;;;;;;;;;;-144.99;100.00;52529.63;5098212;27;19997;-71
2023/11/14 03:39:19;;;;;;;;;;;;;;;-144.99;100.00;52558.16;5113741;27;19927;-70
2023/11/14 03:41:45;;;;;;;;;;;;;;;-144.99;100.00;52525.56;5105864;28;19928;-72
2023/11/14 03:44:12;;;;;;;;;;;;;;;-144.99;100.00;52570.38;5115294;27;19951;-71
2023/11/14 03:46:38;;;;;;;;;;;;;;;-144.99;100.00;52550.00;5115566;27;19930;-72
2023/11/14 03:49:05;;;;;;;;;;;;;;;-144.99;100.00;52572.44;5110293;28;19982;-71
2023/11/14 03:51:33;;;;;;;;;;;;;;;-144.99;100.00;52529.63;5104001;28;19990;-70
2023/11/14 03:54:00;;;;;;;;;;;;;;;-144.99;100.00;52533.69;5109446;28;19955;-70
2023/11/14 03:56:26;;;;;;;;;;;;;;;-144.99;100.00;52560.19;5102922;28;19930;-68
2023/11/14 03:58:53;;;;;;;;;;;;;;;-144.99;100.00;52511.28;5097810;28;19928;-67
2023/11/14 04:01:19;;;;;;;;;;;;;;;-144.99;100.00;52582.63;5094788;28;19934;-68
2023/11/14 04:03:46;;;;;;;;;;;;;;;-144.99;100.00;52566.31;5101423;27;19928;-70
2023/11/14 04:06:13;;;;;;;;;;;;;;;-144.99;100.00;52578.53;5098267;28;20006;-69
2023/11/14 04:08:41;;;;;;;;;;;;;;;-144.99;100.00;52537.78;5111068;27;19947;-70
2023/11/14 04:11:08;;;;;;;;;;;;;;;-144.99;100.00;52570.38;5112353;28;19966;-68
2023/11/14 04:13:34;;;;;;;;;;;;;;;-144.99;100.00;52537.78;5111491;28;19996;-70
2023/11/14 04:16:01;;;;;;;;;;;;;;;-144.99;100.00;52554.09;5113840;27;19982;-67
2023/11/14 04:18:27;;;;;;;;;;;;;;;-144.99;100.00;52529.63;5114605;27;19931;-68
2023/11/14 04:20:55;;;;;;;;;;;;;;;-144.99;100.00;52578.53;5110603;27;19928;-67
2023/11/14 04:23:22;;;;;;;;;;;;;;;-144.99;100.00;52529.63;5106199;28;19975;-67
2023/11/14 04:25:50;;;;;;;;;;;;;;;-144.99;100.00;52582.63;5098066;28;20028;-66
2023/11/14 04:28:16;;;;;;;;;;;;;;;-144.99;100.00;52574.47;5098321;28;20111;-67
2023/11/14 04:30:42;;;;;;;;;;;;;;;-144.99;100.00;52586.69;5101828;28;19975;-63
2023/11/14 04:33:09;;;;;;;;;;;;;;;-144.99;100.00;52552.03;5095188;28;20037;-63
2023/11/14 04:35:35;;;;;;;;;;;;;;;-144.99;100.00;52570.38;5106763;28;19962;-64
2023/11/14 04:38:02;;;;;;;;;;;;;;;-144.99;100.00;52554.09;5101824;28;19999;-64
2023/11/14 04:40:29;;;;;;;;;;;;;;;-144.99;100.00;52572.44;5106240;28;19960;-63
2023/11/14 04:42:57;;;;;;;;;;;;;;;-144.99;100.00;52570.38;5106021;28;20352;-64
2023/11/14 04:45:23;;;;;;;;;;;;;;;-144.99;100.00;52545.94;5101596;28;19936;-65
2023/11/14 04:47:50;;;;;;;;;;;;;;;-144.99;100.00;52558.16;5107252;28;20358;-64
2023/11/14 04:50:20;;;;;;;;;;;;;;;-144.99;100.00;52519.44;5118763;22;19924;-66
2023/11/14 04:52:46;;;;;;;;;;;;;;;-144.99;100.00;52566.31;5105243;28;19924;-65
2023/11/14 04:55:12;;;;;;;;;;;;;;;-144.99;100.00;52570.38;5103350;28;20046;-66
2023/11/14 04:57:39;;;;;;;;;;;;;;;-144.99;100.00;52513.31;5101625;28;19963;-66
2023/11/14 05:00:09;;;;;;;;;;;;;;;-144.99;100.00;52558.16;5100461;28;19981;-66
2023/11/14 05:02:36;;;;;;;;;;;;;;;-144.99;100.00;52541.84;5103672;28;19927;-65
2023/11/14 05:05:05;;;;;;;;;;;;;;;-144.99;100.00;52570.38;5106521;28;21671;-66
2023/11/14 05:07:31;;;;;;;;;;;;;;;-144.99;100.00;52529.63;5104053;28;20393;-66
2023/11/14 05:09:58;;;;;;;;;;;;;;;-144.99;100.00;52550.00;5106121;28;19955;-67
2023/11/14 05:12:24;;;;;;;;;;;;;;;-144.99;100.00;52562.25;5108873;28;19984;-66
2023/11/14 05:14:51;;;;;;;;;;;;;;;-144.99;100.00;52590.78;5107203;28;19995;-66
2023/11/14 05:17:19;;;;;;;;;;;;;;;-144.99;100.00;52562.25;5107096;28;19931;-65
2023/11/14 05:19:46;;;;;;;;;;;;;;;-144.99;100.00;52564.28;5106339;28;19977;-64
2023/11/14 05:22:12;;;;;;;;;;;;;;;-144.99;100.00;52566.31;5106937;28;20389;-70
2023/11/14 05:24:39;;;;;;;;;;;;;;;-144.99;100.00;52552.03;5108369;28;20317;-66
2023/11/14 05:27:06;;;;;;;;;;;;;;;-144.99;100.00;52562.25;5108075;28;19946;-69
2023/11/14 05:29:32;;;;;;;;;;;;;;;-144.99;100.00;52539.81;5111456;28;19923;-69
2023/11/14 05:31:59;;;;;;;;;;;;;;;-144.99;100.00;52558.16;5108348;28;19975;-67
2023/11/14 05:34:26;;;;;;;;;;;;;;;-144.99;100.00;52566.31;5108299;28;19980;-69
2023/11/14 05:36:53;;;;;;;;;;;;;;;-144.99;100.00;52586.69;5101254;28;19959;-68
2023/11/14 05:39:20;;;;;;;;;;;;;;;-144.99;100.00;52590.78;5106957;28;20015;-69
2023/11/14 05:41:46;;;;;;;;;;;;;;;-144.99;100.00;52570.38;5107735;28;19961;-70
2023/11/14 05:44:14;;;;;;;;;;;;;;;-144.99;100.00;52566.31;5108266;28;19924;-72
2023/11/14 05:46:40;;;;;;;;;;;;;;;-144.99;100.00;52582.63;5101973;28;20027;-70
2023/11/14 05:49:07;;;;;;;;;;;;;;;-144.99;100.00;52550.00;5106932;28;19967;-72
2023/11/14 05:51:35;;;;;;;;;;;;;;;-144.99;100.00;52566.31;5105477;28;20300;-71
2023/11/14 05:54:02;;;;;;;;;;;;;;;-144.99;100.00;52566.31;5107984;28;19955;-70
2023/11/14 05:56:28;;;;;;;;;;;;;;;-144.99;100.00;52545.94;5104263;28;20282;-70
2023/11/14 05:58:55;;;;;;;;;;;;;;;-144.99;100.00;52590.78;5098337;28;19928;-73
2023/11/14 06:01:22;;;;;;;;;;;;;;;-144.99;100.00;52550.00;5103716;28;19984;-73
2023/11/14 06:03:49;;;;;;;;;;;;;;;-144.99;100.00;52554.09;5095261;28;19923;-74
2023/11/14 06:06:16;;;;;;;;;;;;;;;-144.99;100.00;52541.84;5096717;28;19980;-74
2023/11/14 06:08:44;;;;;;;;;;;;;;;-144.99;100.00;52547.97;5108707;28;19985;-74
2023/11/14 06:11:10;;;;;;;;;;;;;;;-144.99;100.00;52529.63;5107967;28;19935;-69
2023/11/14 06:13:36;;;;;;;;;;;;;;;-144.99;100.00;52564.28;5101732;28;20116;-65
2023/11/14 06:16:04;;;;;;;;;;;;;;;-144.99;100.00;52533.69;5105606;28;20030;-74
2023/11/14 06:18:30;;;;;;;;;;;;;;;-144.99;100.00;52558.16;5107817;28;19928;-75
2023/11/14 06:20:57;;;;;;;;;;;;;;;-144.99;100.00;52603.00;5094154;28;19969;-76
2023/11/14 06:23:24;;;;;;;;;;;;;;;-144.99;100.00;52568.34;5098881;28;19973;-76
2023/11/14 06:25:52;;;;;;;;;;;;;;;-144.99;100.00;52564.28;5103597;28;19958;-74
2023/11/14 06:28:18;;;;;;;;;;;;;;;-144.99;100.00;52578.53;5102191;28;19928;-74
2023/11/14 06:30:45;;;;;;;;;;;;;;;-144.99;100.00;52598.94;5108263;28;19924;-76
2023/11/14 06:33:11;;;;;;;;;;;;;;;-144.99;100.00;52558.16;4747621;27;10000049;-74
2023/11/14 06:35:38;;;;;;;;;;;;;;;-144.99;100.00;52566.31;5102846;28;20162;-74
2023/11/14 06:38:05;;;;;;;;;;;;;;;-144.99;100.00;52550.00;5105978;28;19928;-74
2023/11/14 06:40:31;;;;;;;;;;;;;;;-144.99;100.00;52580.59;5105789;28;20020;-72
2023/11/14 06:42:59;;;;;;;;;;;;;;;-144.99;100.00;52566.31;5105252;28;20158;-75
2023/11/14 06:45:25;;;;;;;;;;;;;;;-144.99;100.00;52570.38;5089623;28;20026;-75
2023/11/14 06:47:52;;;;;;;;;;;;;;;-144.99;100.00;52578.53;5101189;28;19993;-72
2023/11/14 06:50:19;;;;;;;;;;;;;;;-144.99;100.00;52529.63;5102040;28;19971;-73
2023/11/14 06:52:45;;;;;;;;;;;;;;;-144.99;100.00;52562.25;5096217;28;19989;-73
2023/11/14 06:55:12;;;;;;;;;;;;;;;-144.99;100.00;52562.25;5094067;28;19924;-73
2023/11/14 06:57:38;;;;;;;;;;;;;;;-144.99;100.00;52554.09;5109941;28;20347;-72
2023/11/14 07:00:08;;;;;;;;;;;;;;;-144.99;100.00;52570.38;5108298;28;19959;-71
2023/11/14 07:02:35;;;;;;;;;;;;;;;-144.99;100.00;52531.66;5108478;27;19977;-72
2023/11/14 07:05:02;;;;;;;;;;;;;;;-144.99;100.00;52515.34;5109342;27;19928;-73
2023/11/14 07:07:29;;;;;;;;;;;;;;;-144.99;100.00;52550.00;5109095;28;20400;-73
2023/11/14 07:09:58;;;;;;;;;;;;;;;-144.99;100.00;52576.50;5108214;28;19951;-73
2023/11/14 07:12:24;;;;;;;;;;;;;;;-144.99;100.00;52578.53;5108450;28;19923;-72
2023/11/14 07:14:51;;;;;;;;;;;;;;;-144.99;100.00;52590.78;5109161;28;19936;-72
2023/11/14 07:17:20;;;;;;;;;;;;;;;-144.99;100.00;52574.47;5102150;28;20037;-72
2023/11/14 07:19:47;;;;;;;;;;;;;;;-144.99;100.00;52541.84;5105653;28;19928;-72
2023/11/14 07:22:13;;;;;;;;;;;;;;;-144.99;100.00;52584.66;5110249;28;19971;-72
2023/11/14 07:24:40;;;;;;;;;;;;;;;-144.99;100.00;52552.03;5110000;28;20015;-73
2023/11/14 07:27:06;;;;;;;;;;;;;;;-144.99;100.00;52578.53;5095993;28;19927;-73
2023/11/14 07:29:33;;;;;;;;;;;;;;;-144.99;100.00;52570.38;5108507;28;20135;-73
2023/11/14 07:32:00;;;;;;;;;;;;;;;-144.99;100.00;52552.03;5103232;28;20012;-71
2023/11/14 07:34:28;;;;;;;;;;;;;;;-144.99;100.00;52574.47;5103106;28;19963;-73
2023/11/14 07:36:54;;;;;;;;;;;;;;;-144.99;100.00;52521.47;5110345;28;19932;-73
2023/11/14 07:39:23;;;;;;;;;;;;;;;-144.99;100.00;52570.38;5111723;28;20483;-73
2023/11/14 07:41:50;;;;;;;;;;;;;;;-144.99;100.00;52588.75;5109762;28;19973;-73
2023/11/14 07:44:17;;;;;;;;;;;;;;;-144.99;100.00;52541.84;5108058;28;19970;-73
2023/11/14 07:46:44;;;;;;;;;;;;;;;-144.99;100.00;52558.16;5114454;28;20364;-73
2023/11/14 07:49:11;;;;;;;;;;;;;;;-144.99;100.00;52596.88;5110323;28;20505;-73
2023/11/14 07:51:38;;;;;;;;;;;;;;;-144.99;100.00;52554.09;5101250;28;19980;-74
2023/11/14 07:54:05;;;;;;;;;;;;;;;-144.99;100.00;52545.94;5096839;28;20016;-74
2023/11/14 07:56:32;;;;;;;;;;;;;;;-144.99;100.00;52547.97;5109862;28;19950;-74
2023/11/14 07:58:59;;;;;;;;;;;;;;;-144.99;100.00;52580.59;5105346;28;19939;-74
2023/11/14 08:01:25;;;;;;;;;;;;;;;-144.99;100.00;52550.00;5097788;28;19963;-75
2023/11/14 08:03:52;;;;;;;;;;;;;;;-144.99;100.00;52566.31;5107789;28;19927;-74
2023/11/14 08:06:18;;;;;;;;;;;;;;;-144.99;100.00;52537.78;5092792;28;19928;-74
2023/11/14 08:08:46;;;;;;;;;;;;;;;-144.99;100.00;52545.94;5105280;28;20069;-74
2023/11/14 08:11:12;;;;;;;;;;;;;;;-144.99;100.00;52525.56;5098402;28;19923;-73
2023/11/14 08:13:39;;;;;;;;;;;;;;;-144.99;100.00;52566.31;5105731;28;20381;-74
2023/11/14 08:16:06;;;;;;;;;;;;;;;-144.99;100.00;52541.84;5099542;28;20372;-72
2023/11/14 08:18:32;;;;;;;;;;;;;;;-144.99;100.00;52533.69;5100365;28;19981;-73
2023/11/14 08:20:59;;;;;;;;;;;;;;;-144.99;100.00;52566.31;5099964;28;19982;-74
2023/11/14 08:23:25;;;;;;;;;;;;;;;-144.99;100.00;52566.31;5109107;27;20535;-73
2023/11/14 08:25:53;;;;;;;;;;;;;;;-144.99;100.00;52562.25;5108491;28;20022;-74
2023/11/14 08:28:20;;;;;;;;;;;;;;;-144.99;100.00;52570.38;5104227;28;19980;-74
2023/11/14 08:30:46;;;;;;;;;;;;;;;-144.99;100.00;52545.94;5108359;28;20381;-74
2023/11/14 08:33:13;;;;;;;;;;;;;;;-144.99;100.00;52576.50;5100499;28;20079;-74
2023/11/14 08:35:39;;;;;;;;;;;;;;;-144.99;100.00;52558.16;5103204;28;19973;-73
2023/11/14 08:38:06;;;;;;;;;;;;;;;-144.99;100.00;52598.94;5105942;28;19928;-72
2023/11/14 08:40:32;;;;;;;;;;;;;;;-144.99;100.00;52541.84;5101241;28;19927;-72
2023/11/14 08:43:00;;;;;;;;;;;;;;;-144.99;100.00;52586.69;5108298;28;20016;-73
2023/11/14 08:45:29;;;;;;;;;;;;;;;-144.99;100.00;52558.16;5108350;28;19924;-73
2023/11/14 08:47:56;;;;;;;;;;;;;;;-144.99;100.00;52550.00;5108148;28;19931;-74
2023/11/14 08:50:23;;;;;;;;;;;;;;;-144.99;100.00;52537.78;5107909;27;19989;-74
2023/11/14 08:52:50;;;;;;;;;;;;;;;-144.99;100.00;52562.25;5107138;28;20332;-75
2023/11/14 08:55:16;;;;;;;;;;;;;;;-144.99;100.00;52513.31;5098375;28;19928;-74
2023/11/14 08:57:43;;;;;;;;;;;;;;;-144.99;100.00;52525.56;5096273;28;19943;-75
2023/11/14 09:00:13;;;;;;;;;;;;;;;-144.99;100.00;52568.34;5095396;28;19928;-75
2023/11/14 09:02:39;;;;;;;;;;;;;;;-144.99;100.00;52566.31;5105804;28;20389;-74
2023/11/14 09:05:09;;;;;;;;;;;;;;;-144.99;100.00;52545.94;5103934;28;20031;-75
2023/11/14 09:07:38;;;;;;;;;;;;;;;-144.99;100.00;52545.94;5112707;28;19978;-78
2023/11/14 09:10:05;;;;;;;;;;;;;;;-144.99;100.00;52543.91;5097198;28;19928;-74
2023/11/14 09:12:32;;;;;;;;;;;;;;;-144.99;100.00;52578.53;5105733;28;20449;-73
2023/11/14 09:14:59;;;;;;;;;;;;;;;-144.99;100.00;52550.00;5102101;28;19924;-74
2023/11/14 09:17:27;;;;;;;;;;;;;;;-144.99;100.00;52539.81;5101118;28;19928;-74
2023/11/14 09:19:53;;;;;;;;;;;;;;;-144.99;100.00;52578.53;5097299;28;19928;-74
2023/11/14 09:22:20;;;;;;;;;;;;;;;-144.99;100.00;52537.78;5105987;28;20445;-74
2023/11/14 09:24:47;;;;;;;;;;;;;;;-144.99;100.00;52566.31;5107324;28;19967;-74
2023/11/14 09:27:13;;;;;;;;;;;;;;;-144.99;100.00;52562.25;5099520;28;19950;-74
2023/11/14 09:29:39;;;;;;;;;;;;;;;-144.99;100.00;52570.38;5108728;28;20027;-74
2023/11/14 09:32:08;;;;;;;;;;;;;;;-144.99;100.00;52547.97;5095082;28;20470;-73
2023/11/14 09:34:36;;;;;;;;;;;;;;;-144.99;100.00;52529.63;5099206;28;20000;-74
2023/11/14 09:37:04;;;;;;;;;;;;;;;-144.99;100.00;52533.69;5094574;28;19927;-74
2023/11/14 09:39:30;;;;;;;;;;;;;;;-144.99;100.00;52541.84;5099316;28;19938;-74
2023/11/14 09:41:57;;;;;;;;;;;;;;;-144.99;100.00;52511.28;5102843;28;19963;-75
2023/11/14 09:44:24;;;;;;;;;;;;;;;-144.99;100.00;52547.97;5095568;28;19927;-74
2023/11/14 09:46:51;;;;;;;;;;;;;;;-144.99;100.00;52521.47;5106292;28;20364;-74
2023/11/14 09:49:18;;;;;;;;;;;;;;;-144.99;100.00;52586.69;5102001;28;20400;-74
2023/11/14 09:51:46;;;;;;;;;;;;;;;-144.99;100.00;52545.94;5101595;28;19984;-74
2023/11/14 09:54:14;;;;;;;;;;;;;;;-144.99;100.00;52529.63;5097947;28;20590;-73
2023/11/14 09:56:41;;;;;;;;;;;;;;;-144.99;100.00;52543.91;5104506;28;20043;-75
2023/11/14 09:59:10;;;;;;;;;;;;;;;-144.99;100.00;52537.78;5107842;28;19935;-74
2023/11/14 10:01:37;;;;;;;;;;;;;;;-144.99;100.00;52545.94;5108764;28;20430;-74
2023/11/14 10:04:04;;;;;;;;;;;;;;;-144.99;100.00;52507.19;5092073;28;19924;-74
2023/11/14 10:06:30;;;;;;;;;;;;;;;-144.99;100.00;52509.25;5102031;28;20350;-74
2023/11/14 10:08:59;;;;;;;;;;;;;;;-144.99;100.00;52537.78;5106504;28;20038;-74
2023/11/14 10:11:40;;;;;;;;;;;;;;;-144.99;100.00;52533.69;5098913;28;19971;-74
2023/11/14 10:14:06;;;;;;;;;;;;;;;-144.99;100.00;52554.09;5096353;28;19992;-72
2023/11/14 10:16:34;;;;;;;;;;;;;;;-144.99;100.00;52537.78;5093522;28;19979;-74
2023/11/14 10:19:09;;;;;;;;;;;;;;;-144.99;100.00;52509.25;5095710;28;20343;-74
2023/11/14 10:21:36;;;;;;;;;;;;;;;-144.99;100.00;52541.84;5093799;28;19924;-74
2023/11/14 10:24:11;;;;;;;;;;;;;;;-144.99;100.00;52529.63;5097328;28;19931;-75
2023/11/14 10:26:47;;;;;;;;;;;;;;;-144.99;100.00;52558.16;5109329;28;19935;-74
2023/11/14 10:29:17;;;;;;;;;;;;;;;-144.99;100.00;52517.41;5109896;28;19967;-74
2023/11/14 10:31:44;;;;;;;;;;;;;;;-144.99;100.00;52527.59;5110285;28;19935;-76
2023/11/14 10:34:24;;;;;;;;;;;;;;;-144.99;100.00;52558.16;5109441;28;19956;-75
2023/11/14 10:36:51;;;;;;;;;;;;;;;-144.99;100.00;52517.41;5101559;28;19927;-75
2023/11/14 10:39:19;;;;;;;;;;;;;;;-144.99;100.00;52444.03;5111261;28;20014;-75
2023/11/14 10:41:45;;;;;;;;;;;;;;;-144.99;100.00;52476.63;5108901;28;19991;-75
2023/11/14 10:44:13;;;;;;;;;;;;;;;-144.99;98.92;52497.00;5115899;28;19928;-75
2023/11/14 10:46:47;;;;;;;;;;;;;;;-144.99;98.75;52529.63;5115268;28;20393;-76
2023/11/14 10:49:13;;;;;;;;;;;;;;;-144.99;98.74;52450.13;5095818;28;20358;-75
2023/11/14 10:51:41;;;;;;;;;;;;;;;-144.99;97.60;52344.16;5098057;28;20015;-76
2023/11/14 10:54:09;;;;;;;;;;;;;;;-144.99;97.21;52513.31;5109795;28;19924;-74
2023/11/14 10:56:37;;;;;;;;;;;;;;;-144.99;98.28;52488.84;5109957;28;19975;-75
2023/11/14 10:59:04;;;;;;;;;;;;;;;-144.99;98.52;52439.94;5105972;28;20431;-75
2023/11/14 11:01:33;;;;;;;;;;;;;;;-144.99;98.01;52527.59;5111098;28;20304;-75
2023/11/14 11:04:00;;;;;;;;;;;;;;;-144.99;100.00;52562.25;5107850;28;20400;-75
2023/11/14 11:06:27;;;;;;;;;;;;;;;-144.99;100.00;52529.63;5105515;28;19927;-75
2023/11/14 11:08:54;;;;;;;;;;;;;;;-144.99;100.00;52529.63;5102450;28;20032;-74
2023/11/14 11:11:21;;;;;;;;;;;;;;;-144.99;100.00;52541.84;5095725;28;20041;-75
2023/11/14 11:13:51;;;;;;;;;;;;;;;-144.99;100.00;52513.31;5109526;28;19975;-74
2023/11/14 11:16:39;;;;;;;;;;;;;;;-144.99;100.00;52366.56;5100371;28;20588;-75
2023/11/14 11:19:06;;;;;;;;;;;;;;;-144.99;98.72;52280.97;5109556;28;19931;-74
2023/11/14 11:21:34;;;;;;;;;;;;;;;-144.99;96.38;52486.81;5114943;28;19932;-74
2023/11/14 11:24:04;;;;;;;;;;;;;;;-144.99;95.04;52484.78;5113473;28;19970;-75
2023/11/14 11:26:30;;;;;;;;;;;;;;;-144.99;95.60;52476.63;5102791;28;19992;-74
2023/11/14 11:28:59;;;;;;;;;;;;;;;-144.99;96.93;52503.13;5119968;28;20471;-74
2023/11/14 11:31:25;;;;;;;;;;;;;;;-144.99;98.25;52521.47;5116078;28;19935;-74
2023/11/14 11:33:54;;;;;;;;;;;;;;;-144.99;100.00;52537.78;5108439;28;20551;-74
2023/11/14 11:36:30;;;;;;;;;;;;;;;-144.99;100.00;52550.00;5109974;28;20349;-73
2023/11/14 11:38:58;;;;;;;;;;;;;;;-144.99;100.00;52550.00;5108644;28;20440;-74
2023/11/14 11:41:25;;;;;;;;;;;;;;;-144.99;100.00;52541.84;5106987;27;19971;-75
2023/11/14 11:44:07;;;;;;;;;;;;;;;-144.99;100.00;52590.78;5097791;28;20028;-75
2023/11/14 11:46:38;;;;;;;;;;;;;;;-144.99;100.00;52558.16;5107568;28;19924;-75
2023/11/14 11:49:23;;;;;;;;;;;;;;;-144.99;100.00;52513.31;5096772;28;19946;-74
2023/11/14 11:51:51;;;;;;;;;;;;;;;-144.99;100.00;52513.31;5106201;28;20346;-74
2023/11/14 11:54:36;;;;;;;;;;;;;;;-144.99;100.00;52525.56;5098450;28;19932;-74
2023/11/14 11:57:07;;;;;;;;;;;;;;;-144.99;99.13;52421.59;5102562;28;19927;-75
2023/11/14 12:00:04;;;;;;;;;;;;;;;-144.99;97.90;52501.09;5110302;28;20161;-74
2023/11/14 12:02:36;;;;;;;;;;;;;;;-144.99;98.40;52541.84;5104902;28;20329;-74
2023/11/14 12:05:03;;;;;;;;;;;;;;;-144.99;98.07;52545.94;5107410;28;19923;-74
2023/11/14 12:07:30;;;;;;;;;;;;;;;-144.99;98.79;52497.00;5100835;28;20412;-73
2023/11/14 12:09:57;;;;;;;;;;;;;;;-144.99;99.37;52537.78;5103189;28;19951;-74
2023/11/14 12:12:24;;;;;;;;;;;;;;;-144.99;99.55;52566.31;5110094;27;20339;-74
2023/11/14 12:14:52;;;;;;;;;;;;;;;-144.99;99.76;52529.63;5104344;28;19924;-77
2023/11/14 12:17:19;;;;;;;;;;;;;;;-144.99;99.71;52537.78;5108488;28;19939;-74
2023/11/14 12:19:47;;;;;;;;;;;;;;;-144.99;99.27;52513.31;5109233;28;20394;-74